Laukaa, Finland
Kieli:  Suomi
CurCond
Päivitetty17/10/2021 09:59 
 

Lähistön Lentoasemien Säätiloja:

 

EFJY - Jyvaskyla (mil/C,) Finland
Etäisyys Sääasemalta: PKo 21km
Päivitetty: 17/10/2021 09:50
Joitain Pilviä
Joitain Pilviä
 Tuulen suunta L
Tuuli: L 22 km/h
Lämpötila: 3°C
Tuulen purevuus: -2°C
Kastepiste: -2°C
Ilmankosteus: 70%
Ilmanpaine: 995 hPa
Pilvisyys: Joitain Pilviä
Näkyvyys: 10 km
Pilvisyystiedot: Joitain Pilviä 701 m
2021/10/17 06:50 EFJY 170650Z AUTO 28012KT 9999 FEW023 03/M02 Q0995
EFHA - Halli (fin-Afb), Finland
Etäisyys Sääasemalta: Lo 56km
Päivitetty: 17/10/2021 09:50
Puolipilvistä
Puolipilvistä
 Tuulen suunta L
Tuuli: L 31 km/h
Lämpötila: 3°C
Tuulen purevuus: -3°C
Kastepiste: -1°C
Ilmankosteus: 75%
Ilmanpaine: 997 hPa
Pilvisyys: Puolipilvistä
Näkyvyys: 10 km
Pilvisyystiedot: Puolipilvistä 792 m
2021/10/17 06:50 EFHA 170650Z AUTO 27017KT 9999 SCT026 03/M01 Q0997
EFMI - Mikkeli, Finland
Etäisyys Sääasemalta: IKa 105km
Päivitetty: 17/10/2021 09:50
Pilvistä
Pilvistä
 Tuulen suunta L
Tuuli: L 31 km/h, Puuskatuuli: 50 km/h
Lämpötila: 4°C
Tuulen purevuus: -2°C
Kastepiste: -2°C
Ilmankosteus: 65%
Ilmanpaine: 996 hPa
Pilvisyys: Pilvistä
Näkyvyys: 10 km
Pilvisyystiedot: Pilvistä 884 m
2021/10/17 06:50 EFMI 170650Z AUTO 26017G27KT 9999 OVC029 04/M02 Q0996
 
EFTP - Tampere/Pirkkala, Finland
Etäisyys Sääasemalta: Lo 135km
Päivitetty: 17/10/2021 09:50
Selkeätä
Selkeätä
 Tuulen suunta L
Tuuli: L 22 km/h
Lämpötila: 4°C
Tuulen purevuus: -1°C
Kastepiste: 0°C
Ilmankosteus: 75%
Ilmanpaine: 1000 hPa
Yhteenveto: Selkeätä
Näkyvyys: Enemmän Kuin 10 km
2021/10/17 06:50 EFTP 170650Z AUTO 26012KT CAVOK 04/00 Q1000
EFKU - Kuopio (mil/Civ), Finland
Etäisyys Sääasemalta: Ko 146km
Päivitetty: 17/10/2021 09:50
Heikkoa Tihkusadetta, Pilvistä
Heikkoa Tihkusadetta, Pilvistä
 Tuulen suunta L
Tuuli: L 30 km/h
Lämpötila: 3°C
Tuulen purevuus: -3°C
Kastepiste: 1°C
Ilmankosteus: 87%
Ilmanpaine: 991 hPa
Yhteenveto: Heikkoa Tihkusadetta
Pilvisyys: Pilvistä
Näkyvyys: 10 km
Pilvisyystiedot: Pilvistä 305 m
2021/10/17 06:50 EFKU 170650Z AUTO 27016KT 9999 -DZ OVC010 03/01 Q0991
EFSI - Seinajoki-Ilmajo, Finland
Etäisyys Sääasemalta: LLu 149km
Päivitetty: 17/10/2021 09:50
Selkeätä
Selkeätä
 Tuulen suunta L
Tuuli: L 17 km/h
Lämpötila: 3°C
Tuulen purevuus: -1°C
Kastepiste: -1°C
Ilmankosteus: 75%
Ilmanpaine: 997 hPa
Yhteenveto: Selkeätä
Näkyvyys: Enemmän Kuin 10 km
2021/10/17 06:50 EFSI 170650Z AUTO 27009KT CAVOK 03/M01 Q0997